sensor_id;sensor_type;location;lat;lon;timestamp;P1;durP1;ratioP1;P2;durP2;ratioP2
50851;SDS011;43953;45.508;-122.806;2023-07-13T00:00:23;0.30;;;0.30;;
50851;SDS011;43953;45.508;-122.806;2023-07-13T00:00:55;0.70;;;0.50;;
50851;SDS011;43953;45.508;-122.806;2023-07-13T00:01:27;1.20;;;0.40;;
50851;SDS011;43953;45.508;-122.806;2023-07-13T00:02:00;0.90;;;0.50;;
50851;SDS011;43953;45.508;-122.806;2023-07-13T00:02:32;0.40;;;0.40;;
50851;SDS011;43953;45.508;-122.806;2023-07-13T00:03:04;1.77;;;0.50;;
50851;SDS011;43953;45.508;-122.806;2023-07-13T00:03:36;1.45;;;0.50;;
50851;SDS011;43953;45.508;-122.806;2023-07-13T00:04:07;0.63;;;0.32;;
50851;SDS011;43953;45.508;-122.806;2023-07-13T00:04:39;1.83;;;0.43;;
50851;SDS011;43953;45.508;-122.806;2023-07-13T00:05:11;0.30;;;0.30;;
50851;SDS011;43953;45.508;-122.806;2023-07-13T00:05:42;1.10;;;0.52;;
50851;SDS011;43953;45.508;-122.806;2023-07-13T00:06:14;0.57;;;0.32;;
50851;SDS011;43953;45.508;-122.806;2023-07-13T00:06:46;1.67;;;0.47;;
50851;SDS011;43953;45.508;-122.806;2023-07-13T00:07:18;0.43;;;0.32;;
50851;SDS011;43953;45.508;-122.806;2023-07-13T00:07:54;0.30;;;0.30;;
50851;SDS011;43953;45.508;-122.806;2023-07-13T00:08:26;0.63;;;0.63;;
50851;SDS011;43953;45.508;-122.806;2023-07-13T00:09:01;0.95;;;0.40;;
50851;SDS011;43953;45.508;-122.806;2023-07-13T00:09:33;0.68;;;0.50;;
50851;SDS011;43953;45.508;-122.806;2023-07-13T00:10:05;0.40;;;0.30;;
50851;SDS011;43953;45.508;-122.806;2023-07-13T00:10:40;0.40;;;0.40;;
50851;SDS011;43953;45.508;-122.806;2023-07-13T00:11:13;0.30;;;0.30;;
50851;SDS011;43953;45.508;-122.806;2023-07-13T00:11:45;0.77;;;0.40;;
50851;SDS011;43953;45.508;-122.806;2023-07-13T00:12:40;0.40;;;0.40;;
50851;SDS011;43953;45.508;-122.806;2023-07-13T00:13:11;0.68;;;0.30;;
50851;SDS011;43953;45.508;-122.806;2023-07-13T00:13:43;0.65;;;0.40;;
50851;SDS011;43953;45.508;-122.806;2023-07-13T00:14:15;0.68;;;0.40;;
50851;SDS011;43953;45.508;-122.806;2023-07-13T00:14:47;0.43;;;0.43;;
50851;SDS011;43953;45.508;-122.806;2023-07-13T00:15:23;0.43;;;0.40;;
50851;SDS011;43953;45.508;-122.806;2023-07-13T00:15:57;0.80;;;0.45;;
50851;SDS011;43953;45.508;-122.806;2023-07-13T00:16:29;0.40;;;0.40;;
50851;SDS011;43953;45.508;-122.806;2023-07-13T00:17:01;0.50;;;0.38;;
50851;SDS011;43953;45.508;-122.806;2023-07-13T00:17:33;0.40;;;0.40;;
50851;SDS011;43953;45.508;-122.806;2023-07-13T00:18:04;1.13;;;0.30;;
50851;SDS011;43953;45.508;-122.806;2023-07-13T00:18:36;0.50;;;0.43;;
50851;SDS011;43953;45.508;-122.806;2023-07-13T00:19:09;0.80;;;0.50;;
50851;SDS011;43953;45.508;-122.806;2023-07-13T00:19:42;0.40;;;0.40;;
50851;SDS011;43953;45.508;-122.806;2023-07-13T00:20:14;0.30;;;0.30;;
50851;SDS011;43953;45.508;-122.806;2023-07-13T00:20:46;0.40;;;0.40;;
50851;SDS011;43953;45.508;-122.806;2023-07-13T00:21:17;1.27;;;0.68;;
50851;SDS011;43953;45.508;-122.806;2023-07-13T00:21:49;0.40;;;0.30;;
50851;SDS011;43953;45.508;-122.806;2023-07-13T00:22:21;0.63;;;0.63;;
50851;SDS011;43953;45.508;-122.806;2023-07-13T00:22:56;0.95;;;0.50;;
50851;SDS011;43953;45.508;-122.806;2023-07-13T00:23:28;1.20;;;0.40;;
50851;SDS011;43953;45.508;-122.806;2023-07-13T00:23:59;1.42;;;0.45;;
50851;SDS011;43953;45.508;-122.806;2023-07-13T00:24:33;0.47;;;0.45;;
50851;SDS011;43953;45.508;-122.806;2023-07-13T00:25:06;1.20;;;0.47;;
50851;SDS011;43953;45.508;-122.806;2023-07-13T00:25:41;1.67;;;0.40;;
50851;SDS011;43953;45.508;-122.806;2023-07-13T00:26:12;1.02;;;0.50;;
50851;SDS011;43953;45.508;-122.806;2023-07-13T00:26:44;0.45;;;0.40;;
50851;SDS011;43953;45.508;-122.806;2023-07-13T00:27:16;0.65;;;0.40;;
50851;SDS011;43953;45.508;-122.806;2023-07-13T00:27:49;1.67;;;0.40;;
50851;SDS011;43953;45.508;-122.806;2023-07-13T00:28:20;0.73;;;0.50;;
50851;SDS011;43953;45.508;-122.806;2023-07-13T00:28:52;1.08;;;0.52;;
50851;SDS011;43953;45.508;-122.806;2023-07-13T00:29:25;0.85;;;0.50;;
50851;SDS011;43953;45.508;-122.806;2023-07-13T00:29:57;1.42;;;0.50;;
50851;SDS011;43953;45.508;-122.806;2023-07-13T00:30:29;0.73;;;0.50;;
50851;SDS011;43953;45.508;-122.806;2023-07-13T00:31:01;0.50;;;0.50;;
50851;SDS011;43953;45.508;-122.806;2023-07-13T00:31:34;0.88;;;0.50;;
50851;SDS011;43953;45.508;-122.806;2023-07-13T00:32:07;0.68;;;0.50;;
50851;SDS011;43953;45.508;-122.806;2023-07-13T00:32:40;0.85;;;0.50;;
50851;SDS011;43953;45.508;-122.806;2023-07-13T00:33:12;0.52;;;0.40;;
50851;SDS011;43953;45.508;-122.806;2023-07-13T00:33:43;0.90;;;0.40;;
50851;SDS011;43953;45.508;-122.806;2023-07-13T00:34:15;0.70;;;0.70;;
50851;SDS011;43953;45.508;-122.806;2023-07-13T00:34:47;0.82;;;0.55;;
50851;SDS011;43953;45.508;-122.806;2023-07-13T00:35:19;0.60;;;0.47;;
50851;SDS011;43953;45.508;-122.806;2023-07-13T00:35:50;0.40;;;0.40;;
50851;SDS011;43953;45.508;-122.806;2023-07-13T00:36:22;0.40;;;0.40;;
50851;SDS011;43953;45.508;-122.806;2023-07-13T00:36:54;0.45;;;0.45;;
50851;SDS011;43953;45.508;-122.806;2023-07-13T00:37:25;1.05;;;0.50;;
50851;SDS011;43953;45.508;-122.806;2023-07-13T00:37:57;0.43;;;0.40;;
50851;SDS011;43953;45.508;-122.806;2023-07-13T00:38:29;0.50;;;0.50;;
50851;SDS011;43953;45.508;-122.806;2023-07-13T00:39:01;1.02;;;0.45;;
50851;SDS011;43953;45.508;-122.806;2023-07-13T00:39:35;0.30;;;0.30;;
50851;SDS011;43953;45.508;-122.806;2023-07-13T00:40:07;0.40;;;0.40;;
50851;SDS011;43953;45.508;-122.806;2023-07-13T00:40:39;1.15;;;0.65;;
50851;SDS011;43953;45.508;-122.806;2023-07-13T00:41:11;0.50;;;0.40;;
50851;SDS011;43953;45.508;-122.806;2023-07-13T00:41:43;0.52;;;0.40;;
50851;SDS011;43953;45.508;-122.806;2023-07-13T00:42:15;0.30;;;0.30;;
50851;SDS011;43953;45.508;-122.806;2023-07-13T00:42:47;0.68;;;0.50;;
50851;SDS011;43953;45.508;-122.806;2023-07-13T00:43:20;1.30;;;0.43;;
50851;SDS011;43953;45.508;-122.806;2023-07-13T00:43:52;0.40;;;0.40;;
50851;SDS011;43953;45.508;-122.806;2023-07-13T00:44:24;1.20;;;0.50;;
50851;SDS011;43953;45.508;-122.806;2023-07-13T00:45:04;0.43;;;0.40;;
50851;SDS011;43953;45.508;-122.806;2023-07-13T00:46:13;0.40;;;0.40;;
50851;SDS011;43953;45.508;-122.806;2023-07-13T00:46:45;0.50;;;0.50;;
50851;SDS011;43953;45.508;-122.806;2023-07-13T00:47:17;0.50;;;0.50;;
50851;SDS011;43953;45.508;-122.806;2023-07-13T00:47:48;0.50;;;0.40;;
50851;SDS011;43953;45.508;-122.806;2023-07-13T00:48:21;0.75;;;0.50;;
50851;SDS011;43953;45.508;-122.806;2023-07-13T00:48:58;0.50;;;0.50;;
50851;SDS011;43953;45.508;-122.806;2023-07-13T00:49:33;0.60;;;0.35;;
50851;SDS011;43953;45.508;-122.806;2023-07-13T00:50:08;0.43;;;0.43;;
50851;SDS011;43953;45.508;-122.806;2023-07-13T00:50:43;1.13;;;0.40;;
50851;SDS011;43953;45.508;-122.806;2023-07-13T00:51:19;0.52;;;0.40;;
50851;SDS011;43953;45.508;-122.806;2023-07-13T00:51:56;1.17;;;0.50;;
50851;SDS011;43953;45.508;-122.806;2023-07-13T00:52:31;1.10;;;0.40;;
50851;SDS011;43953;45.508;-122.806;2023-07-13T00:53:03;0.55;;;0.50;;
50851;SDS011;43953;45.508;-122.806;2023-07-13T00:53:35;0.50;;;0.50;;
50851;SDS011;43953;45.508;-122.806;2023-07-13T00:54:09;0.93;;;0.30;;
50851;SDS011;43953;45.508;-122.806;2023-07-13T00:54:45;0.40;;;0.40;;
50851;SDS011;43953;45.508;-122.806;2023-07-13T00:55:18;0.68;;;0.40;;
50851;SDS011;43953;45.508;-122.806;2023-07-13T00:55:52;0.98;;;0.40;;
50851;SDS011;43953;45.508;-122.806;2023-07-13T00:56:26;1.17;;;0.40;;
50851;SDS011;43953;45.508;-122.806;2023-07-13T00:57:00;0.38;;;0.38;;
50851;SDS011;43953;45.508;-122.806;2023-07-13T00:57:34;0.43;;;0.43;;
50851;SDS011;43953;45.508;-122.806;2023-07-13T00:58:06;0.60;;;0.43;;
50851;SDS011;43953;45.508;-122.806;2023-07-13T00:58:38;0.40;;;0.40;;
50851;SDS011;43953;45.508;-122.806;2023-07-13T00:59:10;0.57;;;0.57;;
50851;SDS011;43953;45.508;-122.806;2023-07-13T00:59:47;1.40;;;0.50;;
50851;SDS011;43953;45.508;-122.806;2023-07-13T01:00:22;0.40;;;0.40;;
50851;SDS011;43953;45.508;-122.806;2023-07-13T01:00:54;0.50;;;0.50;;
50851;SDS011;43953;45.508;-122.806;2023-07-13T01:01:26;1.10;;;0.70;;
50851;SDS011;43953;45.508;-122.806;2023-07-13T01:01:57;0.40;;;0.40;;
50851;SDS011;43953;45.508;-122.806;2023-07-13T01:02:29;0.65;;;0.47;;
50851;SDS011;43953;45.508;-122.806;2023-07-13T01:03:01;0.60;;;0.52;;
50851;SDS011;43953;45.508;-122.806;2023-07-13T01:03:35;1.73;;;0.82;;
50851;SDS011;43953;45.508;-122.806;2023-07-13T01:04:08;0.45;;;0.45;;
50851;SDS011;43953;45.508;-122.806;2023-07-13T01:04:40;0.70;;;0.32;;
50851;SDS011;43953;45.508;-122.806;2023-07-13T01:05:16;1.30;;;0.40;;
50851;SDS011;43953;45.508;-122.806;2023-07-13T01:05:50;1.40;;;0.50;;
50851;SDS011;43953;45.508;-122.806;2023-07-13T01:06:24;0.50;;;0.47;;
50851;SDS011;43953;45.508;-122.806;2023-07-13T01:06:56;0.50;;;0.50;;
50851;SDS011;43953;45.508;-122.806;2023-07-13T01:07:29;0.40;;;0.40;;
50851;SDS011;43953;45.508;-122.806;2023-07-13T01:08:01;0.50;;;0.50;;
50851;SDS011;43953;45.508;-122.806;2023-07-13T01:08:36;1.55;;;0.50;;
50851;SDS011;43953;45.508;-122.806;2023-07-13T01:09:08;0.60;;;0.60;;
50851;SDS011;43953;45.508;-122.806;2023-07-13T01:09:41;0.47;;;0.47;;
50851;SDS011;43953;45.508;-122.806;2023-07-13T01:10:12;0.75;;;0.60;;
50851;SDS011;43953;45.508;-122.806;2023-07-13T01:10:52;0.77;;;0.50;;
50851;SDS011;43953;45.508;-122.806;2023-07-13T01:11:24;1.65;;;0.60;;
50851;SDS011;43953;45.508;-122.806;2023-07-13T01:11:58;0.40;;;0.40;;
50851;SDS011;43953;45.508;-122.806;2023-07-13T01:12:30;0.55;;;0.50;;
50851;SDS011;43953;45.508;-122.806;2023-07-13T01:13:02;0.60;;;0.60;;
50851;SDS011;43953;45.508;-122.806;2023-07-13T01:13:34;0.60;;;0.43;;
50851;SDS011;43953;45.508;-122.806;2023-07-13T01:14:06;0.98;;;0.60;;
50851;SDS011;43953;45.508;-122.806;2023-07-13T01:14:38;0.55;;;0.40;;
50851;SDS011;43953;45.508;-122.806;2023-07-13T01:16:13;0.57;;;0.40;;
50851;SDS011;43953;45.508;-122.806;2023-07-13T01:16:50;0.47;;;0.47;;
50851;SDS011;43953;45.508;-122.806;2023-07-13T01:17:22;0.60;;;0.50;;
50851;SDS011;43953;45.508;-122.806;2023-07-13T01:17:55;1.50;;;0.50;;
50851;SDS011;43953;45.508;-122.806;2023-07-13T01:18:27;0.30;;;0.30;;
50851;SDS011;43953;45.508;-122.806;2023-07-13T01:18:59;0.57;;;0.57;;
50851;SDS011;43953;45.508;-122.806;2023-07-13T01:20:07;1.15;;;0.55;;
50851;SDS011;43953;45.508;-122.806;2023-07-13T01:20:40;0.50;;;0.50;;
50851;SDS011;43953;45.508;-122.806;2023-07-13T01:21:12;0.40;;;0.40;;
50851;SDS011;43953;45.508;-122.806;2023-07-13T01:21:44;0.65;;;0.40;;
50851;SDS011;43953;45.508;-122.806;2023-07-13T01:22:21;0.60;;;0.57;;
50851;SDS011;43953;45.508;-122.806;2023-07-13T01:22:57;1.27;;;0.50;;
50851;SDS011;43953;45.508;-122.806;2023-07-13T01:23:30;0.50;;;0.50;;
50851;SDS011;43953;45.508;-122.806;2023-07-13T01:24:03;0.57;;;0.57;;
50851;SDS011;43953;45.508;-122.806;2023-07-13T01:24:38;0.40;;;0.40;;
50851;SDS011;43953;45.508;-122.806;2023-07-13T01:25:11;1.08;;;0.40;;
50851;SDS011;43953;45.508;-122.806;2023-07-13T01:25:42;0.55;;;0.50;;
50851;SDS011;43953;45.508;-122.806;2023-07-13T01:26:14;0.70;;;0.40;;
50851;SDS011;43953;45.508;-122.806;2023-07-13T01:26:46;0.40;;;0.40;;
50851;SDS011;43953;45.508;-122.806;2023-07-13T01:27:20;0.60;;;0.40;;
50851;SDS011;43953;45.508;-122.806;2023-07-13T01:27:56;0.60;;;0.60;;
50851;SDS011;43953;45.508;-122.806;2023-07-13T01:28:28;0.40;;;0.40;;
50851;SDS011;43953;45.508;-122.806;2023-07-13T01:29:00;0.50;;;0.40;;
50851;SDS011;43953;45.508;-122.806;2023-07-13T01:29:33;0.52;;;0.47;;
50851;SDS011;43953;45.508;-122.806;2023-07-13T01:30:44;1.60;;;0.52;;
50851;SDS011;43953;45.508;-122.806;2023-07-13T01:31:17;0.63;;;0.50;;
50851;SDS011;43953;45.508;-122.806;2023-07-13T01:31:49;0.40;;;0.40;;
50851;SDS011;43953;45.508;-122.806;2023-07-13T01:32:23;1.70;;;0.55;;
50851;SDS011;43953;45.508;-122.806;2023-07-13T01:32:56;0.50;;;0.45;;
50851;SDS011;43953;45.508;-122.806;2023-07-13T01:33:27;0.77;;;0.43;;
50851;SDS011;43953;45.508;-122.806;2023-07-13T01:33:59;0.82;;;0.43;;
50851;SDS011;43953;45.508;-122.806;2023-07-13T01:34:31;0.73;;;0.50;;
50851;SDS011;43953;45.508;-122.806;2023-07-13T01:35:03;0.70;;;0.60;;
50851;SDS011;43953;45.508;-122.806;2023-07-13T01:35:35;0.88;;;0.50;;
50851;SDS011;43953;45.508;-122.806;2023-07-13T01:36:07;0.55;;;0.55;;
50851;SDS011;43953;45.508;-122.806;2023-07-13T01:36:40;0.50;;;0.50;;
50851;SDS011;43953;45.508;-122.806;2023-07-13T01:37:12;0.50;;;0.50;;
50851;SDS011;43953;45.508;-122.806;2023-07-13T01:37:44;0.40;;;0.40;;
50851;SDS011;43953;45.508;-122.806;2023-07-13T01:38:17;2.35;;;0.60;;
50851;SDS011;43953;45.508;-122.806;2023-07-13T01:38:51;0.63;;;0.40;;
50851;SDS011;43953;45.508;-122.806;2023-07-13T01:39:23;0.50;;;0.50;;
50851;SDS011;43953;45.508;-122.806;2023-07-13T01:39:55;0.50;;;0.50;;
50851;SDS011;43953;45.508;-122.806;2023-07-13T01:40:27;1.55;;;0.43;;
50851;SDS011;43953;45.508;-122.806;2023-07-13T01:41:00;0.50;;;0.50;;
50851;SDS011;43953;45.508;-122.806;2023-07-13T01:41:32;1.38;;;0.50;;
50851;SDS011;43953;45.508;-122.806;2023-07-13T01:42:04;2.25;;;0.50;;
50851;SDS011;43953;45.508;-122.806;2023-07-13T01:42:36;0.75;;;0.60;;
50851;SDS011;43953;45.508;-122.806;2023-07-13T01:43:08;1.13;;;0.63;;
50851;SDS011;43953;45.508;-122.806;2023-07-13T01:43:40;1.42;;;0.60;;
50851;SDS011;43953;45.508;-122.806;2023-07-13T01:44:30;1.30;;;0.63;;
50851;SDS011;43953;45.508;-122.806;2023-07-13T01:45:20;0.50;;;0.47;;
50851;SDS011;43953;45.508;-122.806;2023-07-13T01:45:52;0.47;;;0.40;;
50851;SDS011;43953;45.508;-122.806;2023-07-13T01:46:23;0.52;;;0.50;;
50851;SDS011;43953;45.508;-122.806;2023-07-13T01:46:55;0.82;;;0.55;;
50851;SDS011;43953;45.508;-122.806;2023-07-13T01:47:27;1.80;;;0.52;;
50851;SDS011;43953;45.508;-122.806;2023-07-13T01:48:01;1.13;;;0.45;;
50851;SDS011;43953;45.508;-122.806;2023-07-13T01:48:33;0.70;;;0.70;;
50851;SDS011;43953;45.508;-122.806;2023-07-13T01:49:05;1.10;;;0.60;;
50851;SDS011;43953;45.508;-122.806;2023-07-13T01:49:36;0.60;;;0.50;;
50851;SDS011;43953;45.508;-122.806;2023-07-13T01:50:09;0.50;;;0.50;;
50851;SDS011;43953;45.508;-122.806;2023-07-13T01:50:41;0.77;;;0.50;;
50851;SDS011;43953;45.508;-122.806;2023-07-13T01:51:13;1.88;;;0.50;;
50851;SDS011;43953;45.508;-122.806;2023-07-13T01:51:44;0.40;;;0.40;;
50851;SDS011;43953;45.508;-122.806;2023-07-13T01:52:16;1.25;;;0.60;;
50851;SDS011;43953;45.508;-122.806;2023-07-13T01:52:48;1.60;;;0.65;;
50851;SDS011;43953;45.508;-122.806;2023-07-13T01:53:20;0.98;;;0.60;;
50851;SDS011;43953;45.508;-122.806;2023-07-13T01:53:51;0.93;;;0.55;;
50851;SDS011;43953;45.508;-122.806;2023-07-13T01:54:23;0.90;;;0.63;;
50851;SDS011;43953;45.508;-122.806;2023-07-13T01:54:55;1.60;;;0.60;;
50851;SDS011;43953;45.508;-122.806;2023-07-13T01:55:27;0.82;;;0.60;;
50851;SDS011;43953;45.508;-122.806;2023-07-13T01:55:59;1.23;;;0.55;;
50851;SDS011;43953;45.508;-122.806;2023-07-13T01:56:31;2.15;;;0.60;;
50851;SDS011;43953;45.508;-122.806;2023-07-13T01:57:03;1.40;;;0.60;;
50851;SDS011;43953;45.508;-122.806;2023-07-13T01:57:35;0.80;;;0.60;;
50851;SDS011;43953;45.508;-122.806;2023-07-13T01:58:06;0.50;;;0.50;;
50851;SDS011;43953;45.508;-122.806;2023-07-13T01:58:38;0.40;;;0.40;;
50851;SDS011;43953;45.508;-122.806;2023-07-13T01:59:10;1.00;;;0.50;;
50851;SDS011;43953;45.508;-122.806;2023-07-13T01:59:41;0.80;;;0.70;;
50851;SDS011;43953;45.508;-122.806;2023-07-13T02:00:13;1.65;;;0.70;;
50851;SDS011;43953;45.508;-122.806;2023-07-13T02:00:47;0.50;;;0.50;;
50851;SDS011;43953;45.508;-122.806;2023-07-13T02:01:20;0.50;;;0.50;;
50851;SDS011;43953;45.508;-122.806;2023-07-13T02:01:52;2.30;;;0.70;;
50851;SDS011;43953;45.508;-122.806;2023-07-13T02:02:24;1.35;;;0.70;;
50851;SDS011;43953;45.508;-122.806;2023-07-13T02:02:56;1.73;;;0.70;;
50851;SDS011;43953;45.508;-122.806;2023-07-13T02:03:27;1.73;;;0.60;;
50851;SDS011;43953;45.508;-122.806;2023-07-13T02:03:59;0.98;;;0.52;;
50851;SDS011;43953;45.508;-122.806;2023-07-13T02:04:31;0.70;;;0.60;;
50851;SDS011;43953;45.508;-122.806;2023-07-13T02:05:03;1.65;;;0.60;;
50851;SDS011;43953;45.508;-122.806;2023-07-13T02:05:35;1.90;;;0.63;;
50851;SDS011;43953;45.508;-122.806;2023-07-13T02:06:07;0.70;;;0.70;;
50851;SDS011;43953;45.508;-122.806;2023-07-13T02:06:39;2.17;;;0.65;;
50851;SDS011;43953;45.508;-122.806;2023-07-13T02:07:11;2.72;;;0.65;;
50851;SDS011;43953;45.508;-122.806;2023-07-13T02:07:43;1.05;;;0.70;;
50851;SDS011;43953;45.508;-122.806;2023-07-13T02:08:15;1.53;;;0.40;;
50851;SDS011;43953;45.508;-122.806;2023-07-13T02:08:46;1.60;;;0.60;;
50851;SDS011;43953;45.508;-122.806;2023-07-13T02:09:18;0.90;;;0.80;;
50851;SDS011;43953;45.508;-122.806;2023-07-13T02:09:50;2.35;;;0.70;;
50851;SDS011;43953;45.508;-122.806;2023-07-13T02:10:21;1.52;;;0.60;;
50851;SDS011;43953;45.508;-122.806;2023-07-13T02:10:53;0.65;;;0.65;;
50851;SDS011;43953;45.508;-122.806;2023-07-13T02:11:25;1.15;;;0.65;;
50851;SDS011;43953;45.508;-122.806;2023-07-13T02:12:03;2.95;;;0.60;;
50851;SDS011;43953;45.508;-122.806;2023-07-13T02:12:35;0.50;;;0.50;;
50851;SDS011;43953;45.508;-122.806;2023-07-13T02:13:07;0.85;;;0.50;;
50851;SDS011;43953;45.508;-122.806;2023-07-13T02:13:39;2.15;;;0.60;;
50851;SDS011;43953;45.508;-122.806;2023-07-13T02:14:11;1.25;;;0.50;;
50851;SDS011;43953;45.508;-122.806;2023-07-13T02:14:42;1.17;;;0.60;;
50851;SDS011;43953;45.508;-122.806;2023-07-13T02:15:14;0.65;;;0.50;;
50851;SDS011;43953;45.508;-122.806;2023-07-13T02:15:46;0.80;;;0.60;;
50851;SDS011;43953;45.508;-122.806;2023-07-13T02:16:21;2.15;;;0.80;;
50851;SDS011;43953;45.508;-122.806;2023-07-13T02:16:53;1.58;;;0.73;;
50851;SDS011;43953;45.508;-122.806;2023-07-13T02:17:26;2.47;;;0.60;;
50851;SDS011;43953;45.508;-122.806;2023-07-13T02:17:58;1.42;;;0.60;;
50851;SDS011;43953;45.508;-122.806;2023-07-13T02:18:30;0.95;;;0.88;;
50851;SDS011;43953;45.508;-122.806;2023-07-13T02:19:02;1.08;;;0.50;;
50851;SDS011;43953;45.508;-122.806;2023-07-13T02:19:33;1.50;;;0.60;;
50851;SDS011;43953;45.508;-122.806;2023-07-13T02:20:05;1.38;;;0.60;;
50851;SDS011;43953;45.508;-122.806;2023-07-13T02:20:38;1.95;;;0.68;;
50851;SDS011;43953;45.508;-122.806;2023-07-13T02:21:10;1.67;;;0.63;;
50851;SDS011;43953;45.508;-122.806;2023-07-13T02:21:42;1.98;;;0.60;;
50851;SDS011;43953;45.508;-122.806;2023-07-13T02:22:14;1.27;;;0.88;;
50851;SDS011;43953;45.508;-122.806;2023-07-13T02:22:46;3.13;;;0.75;;
50851;SDS011;43953;45.508;-122.806;2023-07-13T02:23:17;2.97;;;0.80;;
50851;SDS011;43953;45.508;-122.806;2023-07-13T02:23:49;0.90;;;0.70;;
50851;SDS011;43953;45.508;-122.806;2023-07-13T02:24:21;0.82;;;0.70;;
50851;SDS011;43953;45.508;-122.806;2023-07-13T02:24:53;2.15;;;0.95;;
50851;SDS011;43953;45.508;-122.806;2023-07-13T02:25:24;1.85;;;0.60;;
50851;SDS011;43953;45.508;-122.806;2023-07-13T02:25:58;2.45;;;0.95;;
50851;SDS011;43953;45.508;-122.806;2023-07-13T02:26:31;0.60;;;0.60;;
50851;SDS011;43953;45.508;-122.806;2023-07-13T02:27:02;1.48;;;0.55;;
50851;SDS011;43953;45.508;-122.806;2023-07-13T02:27:35;1.77;;;0.73;;
50851;SDS011;43953;45.508;-122.806;2023-07-13T02:28:06;2.60;;;0.70;;
50851;SDS011;43953;45.508;-122.806;2023-07-13T02:28:38;0.70;;;0.60;;
50851;SDS011;43953;45.508;-122.806;2023-07-13T02:29:10;2.28;;;0.50;;
50851;SDS011;43953;45.508;-122.806;2023-07-13T02:29:42;1.63;;;0.77;;
50851;SDS011;43953;45.508;-122.806;2023-07-13T02:30:13;2.50;;;0.60;;
50851;SDS011;43953;45.508;-122.806;2023-07-13T02:30:45;2.15;;;0.90;;
50851;SDS011;43953;45.508;-122.806;2023-07-13T02:31:17;1.08;;;0.60;;
50851;SDS011;43953;45.508;-122.806;2023-07-13T02:31:49;1.50;;;0.70;;
50851;SDS011;43953;45.508;-122.806;2023-07-13T02:32:21;3.30;;;0.65;;
50851;SDS011;43953;45.508;-122.806;2023-07-13T02:32:53;1.60;;;0.60;;
50851;SDS011;43953;45.508;-122.806;2023-07-13T02:33:25;2.05;;;0.77;;
50851;SDS011;43953;45.508;-122.806;2023-07-13T02:33:56;2.35;;;0.73;;
50851;SDS011;43953;45.508;-122.806;2023-07-13T02:34:28;2.13;;;0.57;;
50851;SDS011;43953;45.508;-122.806;2023-07-13T02:35:00;2.78;;;0.70;;
50851;SDS011;43953;45.508;-122.806;2023-07-13T02:35:32;2.05;;;0.60;;
50851;SDS011;43953;45.508;-122.806;2023-07-13T02:36:03;2.25;;;0.68;;
50851;SDS011;43953;45.508;-122.806;2023-07-13T02:36:36;5.63;;;0.90;;
50851;SDS011;43953;45.508;-122.806;2023-07-13T02:37:08;2.03;;;0.95;;
50851;SDS011;43953;45.508;-122.806;2023-07-13T02:37:39;1.85;;;0.70;;
50851;SDS011;43953;45.508;-122.806;2023-07-13T02:38:11;1.80;;;0.60;;
50851;SDS011;43953;45.508;-122.806;2023-07-13T02:38:43;1.67;;;0.80;;
50851;SDS011;43953;45.508;-122.806;2023-07-13T02:39:15;1.25;;;0.70;;
50851;SDS011;43953;45.508;-122.806;2023-07-13T02:39:47;0.70;;;0.70;;
50851;SDS011;43953;45.508;-122.806;2023-07-13T02:40:19;2.65;;;0.90;;
50851;SDS011;43953;45.508;-122.806;2023-07-13T02:40:51;2.33;;;0.75;;
50851;SDS011;43953;45.508;-122.806;2023-07-13T02:41:22;0.77;;;0.60;;
50851;SDS011;43953;45.508;-122.806;2023-07-13T02:41:54;2.50;;;0.80;;
50851;SDS011;43953;45.508;-122.806;2023-07-13T02:42:26;1.63;;;0.90;;
50851;SDS011;43953;45.508;-122.806;2023-07-13T02:42:57;3.47;;;0.60;;
50851;SDS011;43953;45.508;-122.806;2023-07-13T02:43:29;4.13;;;0.93;;
50851;SDS011;43953;45.508;-122.806;2023-07-13T02:44:02;2.90;;;0.80;;
50851;SDS011;43953;45.508;-122.806;2023-07-13T02:44:34;1.63;;;0.63;;
50851;SDS011;43953;45.508;-122.806;2023-07-13T02:45:06;1.27;;;0.70;;
50851;SDS011;43953;45.508;-122.806;2023-07-13T02:45:43;1.15;;;0.80;;
50851;SDS011;43953;45.508;-122.806;2023-07-13T02:46:15;2.28;;;0.80;;
50851;SDS011;43953;45.508;-122.806;2023-07-13T02:46:47;4.18;;;1.00;;
50851;SDS011;43953;45.508;-122.806;2023-07-13T02:47:18;5.10;;;0.88;;
50851;SDS011;43953;45.508;-122.806;2023-07-13T02:47:50;2.38;;;0.80;;
50851;SDS011;43953;45.508;-122.806;2023-07-13T02:48:22;1.65;;;0.80;;
50851;SDS011;43953;45.508;-122.806;2023-07-13T02:48:53;5.38;;;1.05;;
50851;SDS011;43953;45.508;-122.806;2023-07-13T02:49:25;5.05;;;1.25;;
50851;SDS011;43953;45.508;-122.806;2023-07-13T02:49:57;7.10;;;1.23;;
50851;SDS011;43953;45.508;-122.806;2023-07-13T02:50:28;5.70;;;1.15;;
50851;SDS011;43953;45.508;-122.806;2023-07-13T02:51:00;5.90;;;1.15;;
50851;SDS011;43953;45.508;-122.806;2023-07-13T02:51:32;8.68;;;1.35;;
50851;SDS011;43953;45.508;-122.806;2023-07-13T02:52:05;2.53;;;1.08;;
50851;SDS011;43953;45.508;-122.806;2023-07-13T02:52:37;4.32;;;1.08;;
50851;SDS011;43953;45.508;-122.806;2023-07-13T02:53:08;5.07;;;1.13;;
50851;SDS011;43953;45.508;-122.806;2023-07-13T02:53:40;5.68;;;1.35;;
50851;SDS011;43953;45.508;-122.806;2023-07-13T02:54:12;6.05;;;1.15;;
50851;SDS011;43953;45.508;-122.806;2023-07-13T02:54:44;3.65;;;1.10;;
50851;SDS011;43953;45.508;-122.806;2023-07-13T02:55:16;3.53;;;1.15;;
50851;SDS011;43953;45.508;-122.806;2023-07-13T02:55:47;6.28;;;1.10;;
50851;SDS011;43953;45.508;-122.806;2023-07-13T02:56:22;4.82;;;1.80;;
50851;SDS011;43953;45.508;-122.806;2023-07-13T02:56:55;5.20;;;1.30;;
50851;SDS011;43953;45.508;-122.806;2023-07-13T02:57:27;4.35;;;0.93;;
50851;SDS011;43953;45.508;-122.806;2023-07-13T02:57:59;6.10;;;1.30;;
50851;SDS011;43953;45.508;-122.806;2023-07-13T02:58:30;7.88;;;1.45;;
50851;SDS011;43953;45.508;-122.806;2023-07-13T02:59:02;3.95;;;1.40;;
50851;SDS011;43953;45.508;-122.806;2023-07-13T02:59:34;9.68;;;2.17;;
50851;SDS011;43953;45.508;-122.806;2023-07-13T03:00:06;5.45;;;1.10;;
50851;SDS011;43953;45.508;-122.806;2023-07-13T03:00:38;3.95;;;1.48;;
50851;SDS011;43953;45.508;-122.806;2023-07-13T03:01:11;5.00;;;1.50;;
50851;SDS011;43953;45.508;-122.806;2023-07-13T03:01:43;4.25;;;1.30;;
50851;SDS011;43953;45.508;-122.806;2023-07-13T03:02:15;5.03;;;1.05;;
50851;SDS011;43953;45.508;-122.806;2023-07-13T03:02:47;4.93;;;1.50;;
50851;SDS011;43953;45.508;-122.806;2023-07-13T03:03:19;3.83;;;1.20;;
50851;SDS011;43953;45.508;-122.806;2023-07-13T03:03:51;5.15;;;1.40;;
50851;SDS011;43953;45.508;-122.806;2023-07-13T03:04:24;5.43;;;1.65;;
50851;SDS011;43953;45.508;-122.806;2023-07-13T03:04:55;6.85;;;1.25;;
50851;SDS011;43953;45.508;-122.806;2023-07-13T03:05:27;7.05;;;1.85;;
50851;SDS011;43953;45.508;-122.806;2023-07-13T03:05:59;4.57;;;1.20;;
50851;SDS011;43953;45.508;-122.806;2023-07-13T03:06:33;4.72;;;1.30;;
50851;SDS011;43953;45.508;-122.806;2023-07-13T03:07:05;5.05;;;1.63;;
50851;SDS011;43953;45.508;-122.806;2023-07-13T03:07:36;7.18;;;1.38;;
50851;SDS011;43953;45.508;-122.806;2023-07-13T03:08:08;15.10;;;2.10;;
50851;SDS011;43953;45.508;-122.806;2023-07-13T03:08:40;3.85;;;1.30;;
50851;SDS011;43953;45.508;-122.806;2023-07-13T03:09:13;4.03;;;1.10;;
50851;SDS011;43953;45.508;-122.806;2023-07-13T03:09:44;3.60;;;1.15;;
50851;SDS011;43953;45.508;-122.806;2023-07-13T03:10:16;8.57;;;1.50;;
50851;SDS011;43953;45.508;-122.806;2023-07-13T03:10:48;4.22;;;1.50;;